sensor_id;sensor_type;location;lat;lon;timestamp;P1;durP1;ratioP1;P2;durP2;ratioP2
34657;SDS011;20865;43.312;27.152;2023-10-13T00:00:34;3.40;;;1.72;;
34657;SDS011;20865;43.312;27.152;2023-10-13T00:03:06;5.55;;;1.98;;
34657;SDS011;20865;43.312;27.152;2023-10-13T00:05:44;7.40;;;1.87;;
34657;SDS011;20865;43.312;27.152;2023-10-13T00:08:12;8.38;;;3.58;;
34657;SDS011;20865;43.312;27.152;2023-10-13T00:10:42;8.60;;;2.08;;
34657;SDS011;20865;43.312;27.152;2023-10-13T00:13:09;6.17;;;2.12;;
34657;SDS011;20865;43.312;27.152;2023-10-13T00:15:42;4.25;;;2.15;;
34657;SDS011;20865;43.312;27.152;2023-10-13T00:18:21;7.55;;;2.20;;
34657;SDS011;20865;43.312;27.152;2023-10-13T00:20:58;7.42;;;1.80;;
34657;SDS011;20865;43.312;27.152;2023-10-13T00:23:26;7.30;;;2.27;;
34657;SDS011;20865;43.312;27.152;2023-10-13T00:25:53;6.50;;;2.40;;
34657;SDS011;20865;43.312;27.152;2023-10-13T00:28:25;9.13;;;2.65;;
34657;SDS011;20865;43.312;27.152;2023-10-13T00:30:55;6.85;;;2.30;;
34657;SDS011;20865;43.312;27.152;2023-10-13T00:33:24;4.75;;;2.33;;
34657;SDS011;20865;43.312;27.152;2023-10-13T00:35:52;4.70;;;2.12;;
34657;SDS011;20865;43.312;27.152;2023-10-13T00:38:21;8.85;;;2.17;;
34657;SDS011;20865;43.312;27.152;2023-10-13T00:40:49;4.70;;;1.98;;
34657;SDS011;20865;43.312;27.152;2023-10-13T00:43:20;5.08;;;2.02;;
34657;SDS011;20865;43.312;27.152;2023-10-13T00:45:54;7.45;;;2.00;;
34657;SDS011;20865;43.312;27.152;2023-10-13T00:48:26;5.78;;;2.05;;
34657;SDS011;20865;43.312;27.152;2023-10-13T00:51:01;7.42;;;1.90;;
34657;SDS011;20865;43.312;27.152;2023-10-13T00:53:32;9.33;;;2.15;;
34657;SDS011;20865;43.312;27.152;2023-10-13T00:56:03;4.03;;;1.90;;
34657;SDS011;20865;43.312;27.152;2023-10-13T00:58:35;4.30;;;2.15;;
34657;SDS011;20865;43.312;27.152;2023-10-13T01:01:06;6.47;;;2.40;;
34657;SDS011;20865;43.312;27.152;2023-10-13T01:03:51;4.75;;;1.80;;
34657;SDS011;20865;43.312;27.152;2023-10-13T01:06:25;7.05;;;2.02;;
34657;SDS011;20865;43.312;27.152;2023-10-13T01:09:03;3.92;;;2.02;;
34657;SDS011;20865;43.312;27.152;2023-10-13T01:11:47;3.47;;;1.90;;
34657;SDS011;20865;43.312;27.152;2023-10-13T01:14:20;5.97;;;2.15;;
34657;SDS011;20865;43.312;27.152;2023-10-13T01:16:50;6.40;;;2.10;;
34657;SDS011;20865;43.312;27.152;2023-10-13T01:19:19;3.70;;;2.15;;
34657;SDS011;20865;43.312;27.152;2023-10-13T01:21:55;5.70;;;1.87;;
34657;SDS011;20865;43.312;27.152;2023-10-13T01:24:24;3.90;;;1.90;;
34657;SDS011;20865;43.312;27.152;2023-10-13T01:26:53;3.67;;;1.98;;
34657;SDS011;20865;43.312;27.152;2023-10-13T01:29:21;8.00;;;2.00;;
34657;SDS011;20865;43.312;27.152;2023-10-13T01:31:50;5.17;;;2.05;;
34657;SDS011;20865;43.312;27.152;2023-10-13T01:34:18;5.67;;;2.08;;
34657;SDS011;20865;43.312;27.152;2023-10-13T01:36:51;14.15;;;2.08;;
34657;SDS011;20865;43.312;27.152;2023-10-13T01:39:21;3.60;;;1.95;;
34657;SDS011;20865;43.312;27.152;2023-10-13T01:41:54;8.78;;;2.02;;
34657;SDS011;20865;43.312;27.152;2023-10-13T01:44:22;3.77;;;1.72;;
34657;SDS011;20865;43.312;27.152;2023-10-13T01:46:55;4.20;;;2.08;;
34657;SDS011;20865;43.312;27.152;2023-10-13T01:49:27;8.30;;;2.42;;
34657;SDS011;20865;43.312;27.152;2023-10-13T01:51:55;6.35;;;1.85;;
34657;SDS011;20865;43.312;27.152;2023-10-13T01:54:24;7.00;;;2.58;;
34657;SDS011;20865;43.312;27.152;2023-10-13T01:56:52;8.13;;;2.10;;
34657;SDS011;20865;43.312;27.152;2023-10-13T01:59:20;11.78;;;2.55;;
34657;SDS011;20865;43.312;27.152;2023-10-13T02:01:48;6.35;;;2.22;;
34657;SDS011;20865;43.312;27.152;2023-10-13T02:04:17;4.85;;;2.10;;
34657;SDS011;20865;43.312;27.152;2023-10-13T02:06:46;4.35;;;1.77;;
34657;SDS011;20865;43.312;27.152;2023-10-13T02:09:14;3.95;;;1.90;;
34657;SDS011;20865;43.312;27.152;2023-10-13T02:11:44;6.75;;;1.98;;
34657;SDS011;20865;43.312;27.152;2023-10-13T02:14:11;6.85;;;2.12;;
34657;SDS011;20865;43.312;27.152;2023-10-13T02:16:41;6.00;;;2.35;;
34657;SDS011;20865;43.312;27.152;2023-10-13T02:19:11;5.25;;;2.42;;
34657;SDS011;20865;43.312;27.152;2023-10-13T02:21:40;6.25;;;1.77;;
34657;SDS011;20865;43.312;27.152;2023-10-13T02:24:19;6.95;;;2.15;;
34657;SDS011;20865;43.312;27.152;2023-10-13T02:26:48;4.30;;;2.02;;
34657;SDS011;20865;43.312;27.152;2023-10-13T02:29:16;7.67;;;2.92;;
34657;SDS011;20865;43.312;27.152;2023-10-13T02:31:43;4.22;;;2.15;;
34657;SDS011;20865;43.312;27.152;2023-10-13T02:34:15;4.65;;;2.12;;
34657;SDS011;20865;43.312;27.152;2023-10-13T02:36:44;7.78;;;2.17;;
34657;SDS011;20865;43.312;27.152;2023-10-13T02:39:13;5.00;;;2.47;;
34657;SDS011;20865;43.312;27.152;2023-10-13T02:41:42;5.45;;;2.30;;
34657;SDS011;20865;43.312;27.152;2023-10-13T02:44:11;5.35;;;2.00;;
34657;SDS011;20865;43.312;27.152;2023-10-13T02:46:41;7.12;;;2.55;;
34657;SDS011;20865;43.312;27.152;2023-10-13T02:49:08;10.90;;;2.00;;
34657;SDS011;20865;43.312;27.152;2023-10-13T02:51:36;4.25;;;2.25;;
34657;SDS011;20865;43.312;27.152;2023-10-13T02:54:06;5.03;;;2.02;;
34657;SDS011;20865;43.312;27.152;2023-10-13T02:56:37;6.60;;;2.27;;
34657;SDS011;20865;43.312;27.152;2023-10-13T02:59:16;6.08;;;2.05;;
34657;SDS011;20865;43.312;27.152;2023-10-13T03:01:45;7.87;;;2.10;;
34657;SDS011;20865;43.312;27.152;2023-10-13T03:04:14;8.58;;;1.80;;
34657;SDS011;20865;43.312;27.152;2023-10-13T03:06:43;6.17;;;2.15;;
34657;SDS011;20865;43.312;27.152;2023-10-13T03:09:13;4.92;;;2.17;;
34657;SDS011;20865;43.312;27.152;2023-10-13T03:11:47;3.62;;;1.82;;
34657;SDS011;20865;43.312;27.152;2023-10-13T03:14:19;6.00;;;2.40;;
34657;SDS011;20865;43.312;27.152;2023-10-13T03:16:57;5.92;;;2.12;;
34657;SDS011;20865;43.312;27.152;2023-10-13T03:19:31;11.45;;;2.87;;
34657;SDS011;20865;43.312;27.152;2023-10-13T03:22:05;6.42;;;2.55;;
34657;SDS011;20865;43.312;27.152;2023-10-13T03:24:34;12.28;;;2.42;;
34657;SDS011;20865;43.312;27.152;2023-10-13T03:27:18;6.87;;;3.55;;
34657;SDS011;20865;43.312;27.152;2023-10-13T03:29:50;8.28;;;2.40;;
34657;SDS011;20865;43.312;27.152;2023-10-13T03:32:20;7.17;;;2.30;;
34657;SDS011;20865;43.312;27.152;2023-10-13T03:34:50;8.18;;;1.95;;
34657;SDS011;20865;43.312;27.152;2023-10-13T03:37:28;6.28;;;2.52;;
34657;SDS011;20865;43.312;27.152;2023-10-13T03:40:05;4.60;;;2.02;;
34657;SDS011;20865;43.312;27.152;2023-10-13T03:42:54;5.00;;;2.08;;
34657;SDS011;20865;43.312;27.152;2023-10-13T03:45:35;10.03;;;2.10;;
34657;SDS011;20865;43.312;27.152;2023-10-13T03:48:26;5.37;;;2.25;;
34657;SDS011;20865;43.312;27.152;2023-10-13T03:50:48;4.45;;;2.25;;
34657;SDS011;20865;43.312;27.152;2023-10-13T03:53:33;4.97;;;2.50;;
34657;SDS011;20865;43.312;27.152;2023-10-13T03:56:06;6.55;;;2.52;;
34657;SDS011;20865;43.312;27.152;2023-10-13T03:58:36;5.87;;;2.80;;
34657;SDS011;20865;43.312;27.152;2023-10-13T04:01:07;7.30;;;2.12;;
34657;SDS011;20865;43.312;27.152;2023-10-13T04:03:39;4.05;;;2.12;;
34657;SDS011;20865;43.312;27.152;2023-10-13T04:06:08;5.28;;;2.00;;
34657;SDS011;20865;43.312;27.152;2023-10-13T04:08:37;8.65;;;2.90;;
34657;SDS011;20865;43.312;27.152;2023-10-13T04:11:07;8.60;;;2.55;;
34657;SDS011;20865;43.312;27.152;2023-10-13T04:13:52;8.33;;;2.90;;
34657;SDS011;20865;43.312;27.152;2023-10-13T04:16:38;5.83;;;2.42;;
34657;SDS011;20865;43.312;27.152;2023-10-13T04:19:07;6.70;;;2.52;;
34657;SDS011;20865;43.312;27.152;2023-10-13T04:21:35;11.48;;;2.37;;
34657;SDS011;20865;43.312;27.152;2023-10-13T04:24:08;6.90;;;2.27;;
34657;SDS011;20865;43.312;27.152;2023-10-13T04:26:39;4.17;;;2.05;;
34657;SDS011;20865;43.312;27.152;2023-10-13T04:29:11;8.38;;;2.65;;
34657;SDS011;20865;43.312;27.152;2023-10-13T04:31:40;5.97;;;2.98;;
34657;SDS011;20865;43.312;27.152;2023-10-13T04:34:15;7.22;;;3.87;;
34657;SDS011;20865;43.312;27.152;2023-10-13T04:36:45;20.30;;;3.35;;
34657;SDS011;20865;43.312;27.152;2023-10-13T04:39:12;10.03;;;2.22;;
34657;SDS011;20865;43.312;27.152;2023-10-13T04:41:41;8.25;;;2.52;;
34657;SDS011;20865;43.312;27.152;2023-10-13T04:44:16;9.88;;;2.45;;
34657;SDS011;20865;43.312;27.152;2023-10-13T04:46:58;10.75;;;2.35;;
34657;SDS011;20865;43.312;27.152;2023-10-13T04:49:29;7.53;;;2.62;;
34657;SDS011;20865;43.312;27.152;2023-10-13T04:52:03;7.58;;;2.60;;
34657;SDS011;20865;43.312;27.152;2023-10-13T04:54:36;12.65;;;2.40;;
34657;SDS011;20865;43.312;27.152;2023-10-13T04:57:17;16.55;;;2.95;;
34657;SDS011;20865;43.312;27.152;2023-10-13T04:59:47;5.20;;;2.45;;
34657;SDS011;20865;43.312;27.152;2023-10-13T05:02:33;7.97;;;3.02;;
34657;SDS011;20865;43.312;27.152;2023-10-13T05:05:07;12.95;;;3.30;;
34657;SDS011;20865;43.312;27.152;2023-10-13T05:07:39;8.85;;;2.95;;
34657;SDS011;20865;43.312;27.152;2023-10-13T05:10:25;11.57;;;3.67;;
34657;SDS011;20865;43.312;27.152;2023-10-13T05:13:11;18.37;;;3.08;;
34657;SDS011;20865;43.312;27.152;2023-10-13T05:15:56;5.55;;;2.40;;
34657;SDS011;20865;43.312;27.152;2023-10-13T05:18:42;7.80;;;2.60;;
34657;SDS011;20865;43.312;27.152;2023-10-13T05:21:28;12.07;;;3.30;;
34657;SDS011;20865;43.312;27.152;2023-10-13T05:24:13;7.87;;;2.58;;
34657;SDS011;20865;43.312;27.152;2023-10-13T05:26:59;9.28;;;2.52;;
34657;SDS011;20865;43.312;27.152;2023-10-13T05:29:45;7.15;;;2.50;;
34657;SDS011;20865;43.312;27.152;2023-10-13T05:32:39;8.05;;;2.65;;
34657;SDS011;20865;43.312;27.152;2023-10-13T05:35:25;10.72;;;2.77;;
34657;SDS011;20865;43.312;27.152;2023-10-13T05:38:10;7.80;;;2.90;;
34657;SDS011;20865;43.312;27.152;2023-10-13T05:40:57;10.25;;;2.80;;
34657;SDS011;20865;43.312;27.152;2023-10-13T05:43:44;8.15;;;2.95;;
34657;SDS011;20865;43.312;27.152;2023-10-13T05:46:30;7.58;;;3.08;;
34657;SDS011;20865;43.312;27.152;2023-10-13T05:49:06;6.20;;;2.87;;
34657;SDS011;20865;43.312;27.152;2023-10-13T05:51:37;6.20;;;2.90;;
34657;SDS011;20865;43.312;27.152;2023-10-13T05:54:09;5.55;;;2.70;;
34657;SDS011;20865;43.312;27.152;2023-10-13T05:56:42;6.05;;;2.55;;
34657;SDS011;20865;43.312;27.152;2023-10-13T05:59:29;5.55;;;2.50;;
34657;SDS011;20865;43.312;27.152;2023-10-13T06:02:16;6.30;;;3.00;;
34657;SDS011;20865;43.312;27.152;2023-10-13T06:05:03;8.73;;;2.98;;
34657;SDS011;20865;43.312;27.152;2023-10-13T06:07:50;5.10;;;2.90;;
34657;SDS011;20865;43.312;27.152;2023-10-13T06:10:36;8.55;;;2.67;;
34657;SDS011;20865;43.312;27.152;2023-10-13T06:13:22;9.40;;;2.83;;
34657;SDS011;20865;43.312;27.152;2023-10-13T06:16:13;9.60;;;3.02;;
34657;SDS011;20865;43.312;27.152;2023-10-13T06:18:56;8.43;;;2.47;;
34657;SDS011;20865;43.312;27.152;2023-10-13T06:21:42;11.08;;;2.80;;
34657;SDS011;20865;43.312;27.152;2023-10-13T06:24:28;5.90;;;2.40;;
34657;SDS011;20865;43.312;27.152;2023-10-13T06:27:15;12.60;;;3.27;;
34657;SDS011;20865;43.312;27.152;2023-10-13T06:30:01;10.20;;;3.33;;
34657;SDS011;20865;43.312;27.152;2023-10-13T06:32:30;14.40;;;3.25;;
34657;SDS011;20865;43.312;27.152;2023-10-13T06:34:59;8.48;;;2.98;;
34657;SDS011;20865;43.312;27.152;2023-10-13T06:37:29;10.25;;;2.83;;
34657;SDS011;20865;43.312;27.152;2023-10-13T06:39:59;16.27;;;3.05;;
34657;SDS011;20865;43.312;27.152;2023-10-13T06:42:35;5.25;;;2.05;;
34657;SDS011;20865;43.312;27.152;2023-10-13T06:45:05;6.22;;;2.52;;
34657;SDS011;20865;43.312;27.152;2023-10-13T06:47:35;6.80;;;2.75;;
34657;SDS011;20865;43.312;27.152;2023-10-13T06:50:09;5.08;;;2.40;;
34657;SDS011;20865;43.312;27.152;2023-10-13T06:52:38;9.10;;;3.27;;
34657;SDS011;20865;43.312;27.152;2023-10-13T06:55:07;8.95;;;2.87;;
34657;SDS011;20865;43.312;27.152;2023-10-13T06:57:37;7.80;;;3.37;;
34657;SDS011;20865;43.312;27.152;2023-10-13T07:00:07;13.85;;;3.12;;
34657;SDS011;20865;43.312;27.152;2023-10-13T07:02:36;12.00;;;3.60;;
34657;SDS011;20865;43.312;27.152;2023-10-13T07:05:04;13.15;;;2.72;;
34657;SDS011;20865;43.312;27.152;2023-10-13T07:07:36;12.73;;;3.80;;
34657;SDS011;20865;43.312;27.152;2023-10-13T07:10:09;9.95;;;3.30;;
34657;SDS011;20865;43.312;27.152;2023-10-13T07:12:40;8.83;;;2.77;;
34657;SDS011;20865;43.312;27.152;2023-10-13T07:15:10;21.77;;;2.85;;
34657;SDS011;20865;43.312;27.152;2023-10-13T07:17:39;12.30;;;2.50;;
34657;SDS011;20865;43.312;27.152;2023-10-13T07:20:08;4.83;;;2.15;;
34657;SDS011;20865;43.312;27.152;2023-10-13T07:22:44;7.58;;;2.10;;
34657;SDS011;20865;43.312;27.152;2023-10-13T07:25:13;7.45;;;1.95;;
34657;SDS011;20865;43.312;27.152;2023-10-13T07:27:43;7.40;;;2.20;;
34657;SDS011;20865;43.312;27.152;2023-10-13T07:30:11;5.17;;;2.00;;
34657;SDS011;20865;43.312;27.152;2023-10-13T07:32:42;6.33;;;1.92;;
34657;SDS011;20865;43.312;27.152;2023-10-13T07:35:15;13.25;;;2.65;;
34657;SDS011;20865;43.312;27.152;2023-10-13T07:37:47;4.90;;;1.77;;
34657;SDS011;20865;43.312;27.152;2023-10-13T07:40:21;4.95;;;1.72;;
34657;SDS011;20865;43.312;27.152;2023-10-13T07:42:51;7.67;;;1.80;;
34657;SDS011;20865;43.312;27.152;2023-10-13T07:45:29;4.08;;;2.12;;
34657;SDS011;20865;43.312;27.152;2023-10-13T07:48:03;6.80;;;1.75;;
34657;SDS011;20865;43.312;27.152;2023-10-13T07:50:42;7.83;;;1.62;;
34657;SDS011;20865;43.312;27.152;2023-10-13T07:53:11;4.72;;;1.98;;
34657;SDS011;20865;43.312;27.152;2023-10-13T07:55:46;6.62;;;2.22;;
34657;SDS011;20865;43.312;27.152;2023-10-13T07:58:14;13.43;;;2.25;;
34657;SDS011;20865;43.312;27.152;2023-10-13T08:00:41;5.80;;;1.92;;
34657;SDS011;20865;43.312;27.152;2023-10-13T08:03:12;10.82;;;2.83;;
34657;SDS011;20865;43.312;27.152;2023-10-13T08:05:45;10.80;;;2.27;;
34657;SDS011;20865;43.312;27.152;2023-10-13T08:08:39;3.75;;;1.60;;
34657;SDS011;20865;43.312;27.152;2023-10-13T08:11:16;6.62;;;2.00;;
34657;SDS011;20865;43.312;27.152;2023-10-13T08:16:13;5.53;;;2.37;;
34657;SDS011;20865;43.312;27.152;2023-10-13T08:18:42;2.95;;;1.67;;
34657;SDS011;20865;43.312;27.152;2023-10-13T08:21:09;4.83;;;1.80;;
34657;SDS011;20865;43.312;27.152;2023-10-13T08:23:39;6.75;;;2.20;;
34657;SDS011;20865;43.312;27.152;2023-10-13T08:26:24;8.53;;;2.17;;
34657;SDS011;20865;43.312;27.152;2023-10-13T08:28:58;3.67;;;1.95;;
34657;SDS011;20865;43.312;27.152;2023-10-13T08:31:50;7.97;;;2.17;;
34657;SDS011;20865;43.312;27.152;2023-10-13T08:34:35;9.03;;;1.95;;
34657;SDS011;20865;43.312;27.152;2023-10-13T08:37:10;9.08;;;1.65;;
34657;SDS011;20865;43.312;27.152;2023-10-13T08:39:51;26.40;;;2.50;;
34657;SDS011;20865;43.312;27.152;2023-10-13T08:42:31;4.72;;;1.57;;
34657;SDS011;20865;43.312;27.152;2023-10-13T08:47:37;7.65;;;2.20;;
34657;SDS011;20865;43.312;27.152;2023-10-13T08:50:07;8.28;;;2.80;;
34657;SDS011;20865;43.312;27.152;2023-10-13T08:52:39;5.67;;;1.75;;
34657;SDS011;20865;43.312;27.152;2023-10-13T08:55:14;15.23;;;2.22;;
34657;SDS011;20865;43.312;27.152;2023-10-13T08:57:53;6.12;;;2.65;;
34657;SDS011;20865;43.312;27.152;2023-10-13T09:00:23;10.82;;;2.50;;
34657;SDS011;20865;43.312;27.152;2023-10-13T09:02:55;5.90;;;2.62;;
34657;SDS011;20865;43.312;27.152;2023-10-13T09:05:27;12.05;;;2.95;;
34657;SDS011;20865;43.312;27.152;2023-10-13T09:08:05;10.80;;;2.90;;
34657;SDS011;20865;43.312;27.152;2023-10-13T09:10:37;9.65;;;2.55;;
34657;SDS011;20865;43.312;27.152;2023-10-13T09:13:12;12.28;;;3.00;;
34657;SDS011;20865;43.312;27.152;2023-10-13T09:15:41;9.35;;;2.77;;
34657;SDS011;20865;43.312;27.152;2023-10-13T09:18:27;10.32;;;3.15;;
34657;SDS011;20865;43.312;27.152;2023-10-13T09:21:06;15.05;;;3.27;;
34657;SDS011;20865;43.312;27.152;2023-10-13T09:23:51;8.05;;;2.72;;
34657;SDS011;20865;43.312;27.152;2023-10-13T09:26:21;4.10;;;2.75;;
34657;SDS011;20865;43.312;27.152;2023-10-13T09:28:50;11.03;;;3.02;;
34657;SDS011;20865;43.312;27.152;2023-10-13T09:31:21;6.87;;;2.65;;
34657;SDS011;20865;43.312;27.152;2023-10-13T09:33:52;11.45;;;3.20;;
34657;SDS011;20865;43.312;27.152;2023-10-13T09:36:21;6.67;;;2.55;;
34657;SDS011;20865;43.312;27.152;2023-10-13T09:38:50;4.15;;;2.58;;
34657;SDS011;20865;43.312;27.152;2023-10-13T09:41:37;7.12;;;2.92;;
34657;SDS011;20865;43.312;27.152;2023-10-13T09:44:07;9.33;;;2.80;;
34657;SDS011;20865;43.312;27.152;2023-10-13T09:46:37;15.93;;;3.02;;
34657;SDS011;20865;43.312;27.152;2023-10-13T09:49:08;5.30;;;2.65;;
34657;SDS011;20865;43.312;27.152;2023-10-13T09:51:46;10.08;;;3.25;;
34657;SDS011;20865;43.312;27.152;2023-10-13T09:54:34;11.90;;;3.60;;
34657;SDS011;20865;43.312;27.152;2023-10-13T09:57:00;4.40;;;2.98;;
34657;SDS011;20865;43.312;27.152;2023-10-13T09:59:51;6.40;;;3.22;;
34657;SDS011;20865;43.312;27.152;2023-10-13T10:02:07;8.98;;;3.10;;
34657;SDS011;20865;43.312;27.152;2023-10-13T10:04:38;12.65;;;2.90;;
34657;SDS011;20865;43.312;27.152;2023-10-13T10:07:10;10.32;;;3.15;;
34657;SDS011;20865;43.312;27.152;2023-10-13T10:09:40;4.62;;;2.62;;
34657;SDS011;20865;43.312;27.152;2023-10-13T10:17:59;18.05;;;3.22;;
34657;SDS011;20865;43.312;27.152;2023-10-13T10:20:28;8.03;;;3.22;;
34657;SDS011;20865;43.312;27.152;2023-10-13T10:23:07;11.15;;;3.58;;
34657;SDS011;20865;43.312;27.152;2023-10-13T10:25:42;7.67;;;2.90;;
34657;SDS011;20865;43.312;27.152;2023-10-13T10:28:11;13.30;;;3.20;;
34657;SDS011;20865;43.312;27.152;2023-10-13T10:30:41;7.95;;;3.52;;
34657;SDS011;20865;43.312;27.152;2023-10-13T10:33:09;10.43;;;3.02;;
34657;SDS011;20865;43.312;27.152;2023-10-13T10:35:44;5.20;;;3.27;;
34657;SDS011;20865;43.312;27.152;2023-10-13T10:38:13;7.53;;;2.67;;
34657;SDS011;20865;43.312;27.152;2023-10-13T10:40:53;6.50;;;2.60;;
34657;SDS011;20865;43.312;27.152;2023-10-13T10:46:15;11.35;;;4.00;;
34657;SDS011;20865;43.312;27.152;2023-10-13T10:48:44;13.90;;;2.85;;
34657;SDS011;20865;43.312;27.152;2023-10-13T10:51:14;9.10;;;2.95;;
34657;SDS011;20865;43.312;27.152;2023-10-13T10:53:43;8.83;;;3.05;;
34657;SDS011;20865;43.312;27.152;2023-10-13T10:56:12;13.72;;;3.15;;
34657;SDS011;20865;43.312;27.152;2023-10-13T10:58:49;6.50;;;3.47;;
34657;SDS011;20865;43.312;27.152;2023-10-13T11:01:23;8.30;;;3.08;;
34657;SDS011;20865;43.312;27.152;2023-10-13T11:03:54;6.83;;;3.02;;
34657;SDS011;20865;43.312;27.152;2023-10-13T11:06:24;8.03;;;3.10;;
34657;SDS011;20865;43.312;27.152;2023-10-13T11:09:05;16.35;;;2.92;;
34657;SDS011;20865;43.312;27.152;2023-10-13T11:11:35;5.50;;;2.70;;
34657;SDS011;20865;43.312;27.152;2023-10-13T11:14:03;9.10;;;2.65;;
34657;SDS011;20865;43.312;27.152;2023-10-13T11:16:47;8.43;;;3.25;;
34657;SDS011;20865;43.312;27.152;2023-10-13T11:19:36;10.65;;;3.12;;
34657;SDS011;20865;43.312;27.152;2023-10-13T11:22:14;5.90;;;2.50;;
34657;SDS011;20865;43.312;27.152;2023-10-13T11:24:56;7.83;;;3.52;;
34657;SDS011;20865;43.312;27.152;2023-10-13T11:27:35;11.43;;;3.67;;
34657;SDS011;20865;43.312;27.152;2023-10-13T11:30:18;11.28;;;3.05;;
34657;SDS011;20865;43.312;27.152;2023-10-13T11:32:58;10.00;;;2.80;;
34657;SDS011;20865;43.312;27.152;2023-10-13T11:35:26;8.20;;;3.02;;
34657;SDS011;20865;43.312;27.152;2023-10-13T11:37:56;9.65;;;3.10;;
34657;SDS011;20865;43.312;27.152;2023-10-13T11:40:25;13.03;;;3.90;;
34657;SDS011;20865;43.312;27.152;2023-10-13T11:43:12;7.90;;;2.70;;
34657;SDS011;20865;43.312;27.152;2023-10-13T11:45:49;6.37;;;3.45;;
34657;SDS011;20865;43.312;27.152;2023-10-13T11:48:22;14.33;;;3.05;;
34657;SDS011;20865;43.312;27.152;2023-10-13T11:50:51;13.32;;;3.08;;
34657;SDS011;20865;43.312;27.152;2023-10-13T11:53:19;8.25;;;2.70;;
34657;SDS011;20865;43.312;27.152;2023-10-13T11:55:47;9.50;;;2.92;;
34657;SDS011;20865;43.312;27.152;2023-10-13T11:58:15;10.75;;;3.10;;
34657;SDS011;20865;43.312;27.152;2023-10-13T12:00:43;9.25;;;3.15;;
34657;SDS011;20865;43.312;27.152;2023-10-13T12:03:21;15.58;;;3.45;;
34657;SDS011;20865;43.312;27.152;2023-10-13T12:06:08;6.60;;;2.92;;
34657;SDS011;20865;43.312;27.152;2023-10-13T12:08:53;13.43;;;3.35;;
34657;SDS011;20865;43.312;27.152;2023-10-13T12:11:22;10.30;;;2.92;;
34657;SDS011;20865;43.312;27.152;2023-10-13T12:14:00;6.22;;;3.35;;
34657;SDS011;20865;43.312;27.152;2023-10-13T12:16:30;12.13;;;3.22;;
34657;SDS011;20865;43.312;27.152;2023-10-13T12:18:59;17.50;;;3.42;;
34657;SDS011;20865;43.312;27.152;2023-10-13T12:21:27;10.08;;;3.08;;
34657;SDS011;20865;43.312;27.152;2023-10-13T12:23:54;10.63;;;2.98;;
34657;SDS011;20865;43.312;27.152;2023-10-13T12:26:22;11.40;;;3.02;;
34657;SDS011;20865;43.312;27.152;2023-10-13T12:28:51;10.65;;;3.20;;
34657;SDS011;20865;43.312;27.152;2023-10-13T12:31:19;16.95;;;3.12;;
34657;SDS011;20865;43.312;27.152;2023-10-13T12:33:48;7.10;;;2.87;;
34657;SDS011;20865;43.312;27.152;2023-10-13T12:36:17;11.08;;;2.90;;
34657;SDS011;20865;43.312;27.152;2023-10-13T12:38:49;11.20;;;3.55;;
34657;SDS011;20865;43.312;27.152;2023-10-13T12:41:18;11.50;;;2.52;;
34657;SDS011;20865;43.312;27.152;2023-10-13T12:44:05;10.00;;;3.40;;
34657;SDS011;20865;43.312;27.152;2023-10-13T12:46:57;6.58;;;3.20;;
34657;SDS011;20865;43.312;27.152;2023-10-13T12:49:43;8.10;;;3.02;;
34657;SDS011;20865;43.312;27.152;2023-10-13T12:52:12;10.68;;;3.30;;
34657;SDS011;20865;43.312;27.152;2023-10-13T12:54:48;9.33;;;3.23;;
34657;SDS011;20865;43.312;27.152;2023-10-13T12:57:28;13.88;;;3.22;;
34657;SDS011;20865;43.312;27.152;2023-10-13T12:59:53;10.38;;;3.52;;
34657;SDS011;20865;43.312;27.152;2023-10-13T13:02:26;9.80;;;3.87;;
34657;SDS011;20865;43.312;27.152;2023-10-13T13:04:55;15.23;;;3.25;;
34657;SDS011;20865;43.312;27.152;2023-10-13T13:07:25;9.10;;;3.22;;
34657;SDS011;20865;43.312;27.152;2023-10-13T13:09:54;11.45;;;2.95;;
34657;SDS011;20865;43.312;27.152;2023-10-13T13:12:24;11.75;;;3.10;;
34657;SDS011;20865;43.312;27.152;2023-10-13T13:14:54;6.67;;;3.42;;
34657;SDS011;20865;43.312;27.152;2023-10-13T13:17:21;9.45;;;3.87;;
34657;SDS011;20865;43.312;27.152;2023-10-13T13:19:49;16.52;;;3.37;;
34657;SDS011;20865;43.312;27.152;2023-10-13T13:22:16;27.67;;;4.83;;
34657;SDS011;20865;43.312;27.152;2023-10-13T13:24:45;10.20;;;3.62;;
34657;SDS011;20865;43.312;27.152;2023-10-13T13:27:14;15.50;;;3.35;;
34657;SDS011;20865;43.312;27.152;2023-10-13T13:29:49;13.28;;;4.25;;
34657;SDS011;20865;43.312;27.152;2023-10-13T13:32:17;9.73;;;3.62;;
34657;SDS011;20865;43.312;27.152;2023-10-13T13:34:47;15.35;;;3.90;;
34657;SDS011;20865;43.312;27.152;2023-10-13T13:37:22;9.23;;;3.83;;
34657;SDS011;20865;43.312;27.152;2023-10-13T13:39:51;7.87;;;3.55;;
34657;SDS011;20865;43.312;27.152;2023-10-13T13:42:19;9.43;;;3.00;;
34657;SDS011;20865;43.312;27.152;2023-10-13T13:44:47;9.83;;;3.50;;
34657;SDS011;20865;43.312;27.152;2023-10-13T13:47:14;16.05;;;3.58;;
34657;SDS011;20865;43.312;27.152;2023-10-13T13:49:51;13.10;;;3.37;;
34657;SDS011;20865;43.312;27.152;2023-10-13T13:52:20;14.25;;;3.72;;
34657;SDS011;20865;43.312;27.152;2023-10-13T13:54:49;14.18;;;4.17;;
34657;SDS011;20865;43.312;27.152;2023-10-13T13:57:17;16.90;;;4.25;;
34657;SDS011;20865;43.312;27.152;2023-10-13T13:59:44;16.25;;;3.52;;
34657;SDS011;20865;43.312;27.152;2023-10-13T14:02:12;22.58;;;3.62;;
34657;SDS011;20865;43.312;27.152;2023-10-13T14:04:46;15.35;;;3.70;;
34657;SDS011;20865;43.312;27.152;2023-10-13T14:07:17;17.25;;;4.03;;
34657;SDS011;20865;43.312;27.152;2023-10-13T14:09:49;18.17;;;3.37;;
34657;SDS011;20865;43.312;27.152;2023-10-13T14:12:22;8.03;;;3.65;;
34657;SDS011;20865;43.312;27.152;2023-10-13T14:14:54;10.80;;;4.10;;
34657;SDS011;20865;43.312;27.152;2023-10-13T14:17:23;16.20;;;3.70;;
34657;SDS011;20865;43.312;27.152;2023-10-13T14:19:58;10.28;;;4.25;;
34657;SDS011;20865;43.312;27.152;2023-10-13T14:22:26;26.75;;;7.15;;
34657;SDS011;20865;43.312;27.152;2023-10-13T14:24:53;13.03;;;3.62;;
34657;SDS011;20865;43.312;27.152;2023-10-13T14:27:21;21.12;;;4.72;;
34657;SDS011;20865;43.312;27.152;2023-10-13T14:29:50;20.82;;;4.00;;
34657;SDS011;20865;43.312;27.152;2023-10-13T14:32:21;20.55;;;5.00;;
34657;SDS011;20865;43.312;27.152;2023-10-13T14:34:53;31.33;;;6.80;;
34657;SDS011;20865;43.312;27.152;2023-10-13T14:37:21;23.07;;;6.45;;
34657;SDS011;20865;43.312;27.152;2023-10-13T14:39:53;18.98;;;4.90;;
34657;SDS011;20865;43.312;27.152;2023-10-13T14:42:24;17.50;;;5.05;;
34657;SDS011;20865;43.312;27.152;2023-10-13T14:44:53;25.25;;;4.90;;
34657;SDS011;20865;43.312;27.152;2023-10-13T14:47:24;14.05;;;4.67;;
34657;SDS011;20865;43.312;27.152;2023-10-13T14:49:52;16.15;;;5.08;;
34657;SDS011;20865;43.312;27.152;2023-10-13T14:52:29;15.88;;;4.40;;
34657;SDS011;20865;43.312;27.152;2023-10-13T14:54:57;18.80;;;4.72;;
34657;SDS011;20865;43.312;27.152;2023-10-13T14:57:25;15.48;;;5.03;;
34657;SDS011;20865;43.312;27.152;2023-10-13T14:59:53;14.50;;;4.47;;
34657;SDS011;20865;43.312;27.152;2023-10-13T15:02:23;27.73;;;5.55;;
34657;SDS011;20865;43.312;27.152;2023-10-13T15:04:50;21.48;;;5.22;;
34657;SDS011;20865;43.312;27.152;2023-10-13T15:07:18;23.47;;;5.37;;
34657;SDS011;20865;43.312;27.152;2023-10-13T15:09:47;25.60;;;4.70;;
34657;SDS011;20865;43.312;27.152;2023-10-13T15:12:15;22.70;;;4.62;;
34657;SDS011;20865;43.312;27.152;2023-10-13T15:14:44;17.20;;;5.35;;
34657;SDS011;20865;43.312;27.152;2023-10-13T15:17:12;28.60;;;5.45;;
34657;SDS011;20865;43.312;27.152;2023-10-13T15:19:41;19.90;;;4.37;;